Time;durP1;ratioP1;P1;durP2;ratioP2;P2;SDS_P1;SDS_P2;PMS_P1;PMS_P2;Temp;Humidity;BMP_temperature;BMP_pressure;BME280_temperature;BME280_humidity;BME280_pressure;Samples;Min_cycle;Max_cycle;Signal;HPM_P1;HPM_P2
2023/08/02 00:00:08;;;;;;;3.83;1.20;;;16.30;99.90;;;;;;5080563;28;20111;-69
2023/08/02 00:02:33;;;;;;;5.65;0.90;;;16.30;99.90;;;;;;5077940;28;20081;-69
2023/08/02 00:04:59;;;;;;;3.50;1.13;;;16.30;99.90;;;;;;5079175;28;20565;-69
2023/08/02 00:07:25;;;;;;;7.40;1.75;;;16.30;99.90;;;;;;5056543;28;20079;-70
2023/08/02 00:09:50;;;;;;;4.25;1.33;;;16.30;99.90;;;;;;5060113;28;20488;-69
2023/08/02 00:12:16;;;;;;;3.33;1.30;;;16.30;99.90;;;;;;5079307;28;20097;-69
2023/08/02 00:14:42;;;;;;;4.97;1.30;;;16.30;99.90;;;;;;5061756;28;20552;-70
2023/08/02 00:17:11;;;;;;;4.03;1.10;;;16.30;99.90;;;;;;5064727;28;20143;-69
2023/08/02 00:19:36;;;;;;;5.57;1.55;;;16.30;99.90;;;;;;5077532;28;20044;-70
2023/08/02 00:22:02;;;;;;;4.68;1.35;;;16.30;99.90;;;;;;5081022;28;20067;-69
2023/08/02 00:24:28;;;;;;;5.78;1.35;;;16.30;99.90;;;;;;5078933;28;20501;-69
2023/08/02 00:26:54;;;;;;;9.30;1.40;;;16.30;99.90;;;;;;5079960;28;20124;-71
2023/08/02 00:29:20;;;;;;;4.60;1.38;;;16.30;99.90;;;;;;5085469;28;20051;-71
2023/08/02 00:31:45;;;;;;;6.20;1.50;;;16.30;99.90;;;;;;5086238;28;20285;-71
2023/08/02 00:34:11;;;;;;;7.95;1.63;;;16.30;99.90;;;;;;5086113;28;20048;-72
2023/08/02 00:36:37;;;;;;;8.30;1.40;;;16.30;99.90;;;;;;5069614;28;20052;-71
2023/08/02 00:39:03;;;;;;;5.22;1.60;;;16.30;99.90;;;;;;5085616;28;20524;-71
2023/08/02 00:41:28;;;;;;;3.58;1.40;;;16.30;99.90;;;;;;5085736;28;20044;-71
2023/08/02 00:43:54;;;;;;;4.50;1.38;;;16.30;99.90;;;;;;5068902;28;20120;-71
2023/08/02 00:46:20;;;;;;;4.15;1.40;;;16.20;99.90;;;;;;5085914;28;20044;-71
2023/08/02 00:48:46;;;;;;;6.25;1.60;;;16.20;99.90;;;;;;5085685;28;20222;-72
2023/08/02 00:51:16;;;;;;;9.68;1.80;;;16.30;99.90;;;;;;5069137;28;20158;-72
2023/08/02 00:53:43;;;;;;;5.90;1.92;;;16.30;99.90;;;;;;5085805;28;20040;-72
2023/08/02 00:56:10;;;;;;;5.72;1.60;;;16.20;99.90;;;;;;5086208;28;20040;-72
2023/08/02 00:58:36;;;;;;;7.72;2.03;;;16.20;99.90;;;;;;5068752;28;20300;-72
2023/08/02 01:01:07;;;;;;;5.38;1.85;;;16.20;99.90;;;;;;5064996;28;20532;-71
2023/08/02 01:03:52;;;;;;;9.63;2.05;;;16.20;99.90;;;;;;5085890;28;20524;-71
2023/08/02 01:06:36;;;;;;;7.22;1.92;;;16.20;99.90;;;;;;5065651;28;20052;-72
2023/08/02 01:09:24;;;;;;;9.45;2.33;;;16.20;99.90;;;;;;5062026;28;20079;-72
2023/08/02 01:12:01;;;;;;;8.60;2.10;;;16.20;99.90;;;;;;5076565;28;20039;-72
2023/08/02 01:14:29;;;;;;;6.95;2.10;;;16.20;99.90;;;;;;5060648;28;20543;-72
2023/08/02 01:16:56;;;;;;;7.32;2.10;;;16.20;99.90;;;;;;5076799;28;20051;-72
2023/08/02 01:19:22;;;;;;;7.65;2.40;;;16.20;99.90;;;;;;5077078;28;20056;-72
2023/08/02 01:21:48;;;;;;;13.45;2.63;;;16.20;99.90;;;;;;5080928;28;20584;-72
2023/08/02 01:24:14;;;;;;;10.43;2.63;;;16.20;99.90;;;;;;5062686;28;20100;-72
2023/08/02 01:26:46;;;;;;;12.45;3.10;;;16.20;99.90;;;;;;5086499;28;20040;-72
2023/08/02 01:29:19;;;;;;;10.43;3.55;;;16.20;99.90;;;;;;5068900;28;20128;-72
2023/08/02 01:31:47;;;;;;;9.30;2.75;;;16.20;99.90;;;;;;5085672;28;20520;-72
2023/08/02 01:34:13;;;;;;;6.18;2.70;;;16.20;99.90;;;;;;5085405;28;20044;-72
2023/08/02 01:36:39;;;;;;;12.57;3.30;;;16.20;99.90;;;;;;5085638;28;20048;-72
2023/08/02 01:39:08;;;;;;;13.45;3.60;;;16.20;99.90;;;;;;5085324;28;20047;-72
2023/08/02 01:41:33;;;;;;;10.27;3.20;;;16.20;99.90;;;;;;5085262;28;20048;-72
2023/08/02 01:43:59;;;;;;;9.43;3.35;;;16.10;99.90;;;;;;5085649;28;20401;-71
2023/08/02 01:46:25;;;;;;;9.38;3.40;;;16.10;99.90;;;;;;5085802;28;20725;-72
2023/08/02 01:48:50;;;;;;;7.75;3.30;;;16.10;99.90;;;;;;5085495;28;20514;-71
2023/08/02 01:51:16;;;;;;;8.98;3.50;;;16.10;99.90;;;;;;5086351;28;20044;-72
2023/08/02 01:53:42;;;;;;;11.10;3.67;;;16.10;99.90;;;;;;5086853;28;20052;-71
2023/08/02 01:56:08;;;;;;;8.23;3.45;;;16.10;99.90;;;;;;5088471;28;20345;-71
2023/08/02 01:58:33;;;;;;;11.45;3.65;;;16.10;99.90;;;;;;5089790;28;20051;-72
2023/08/02 02:00:59;;;;;;;13.50;3.63;;;16.10;99.90;;;;;;5083654;28;20059;-71
2023/08/02 02:03:26;;;;;;;11.98;4.20;;;16.10;99.90;;;;;;5088883;28;20066;-71
2023/08/02 02:05:55;;;;;;;11.90;4.05;;;16.10;99.90;;;;;;5089199;28;20097;-72
2023/08/02 02:08:23;;;;;;;9.35;3.60;;;16.00;99.90;;;;;;5086867;28;20134;-71
2023/08/02 02:10:53;;;;;;;9.32;3.53;;;16.10;99.90;;;;;;5087253;28;20051;-72
2023/08/02 02:13:20;;;;;;;10.27;3.50;;;16.00;99.90;;;;;;5088479;28;20051;-72
2023/08/02 02:15:46;;;;;;;14.80;3.30;;;16.00;99.90;;;;;;5090353;28;20047;-72
2023/08/02 02:18:12;;;;;;;10.48;3.55;;;16.00;99.90;;;;;;5086470;28;20232;-72
2023/08/02 02:20:38;;;;;;;9.07;3.58;;;16.00;99.90;;;;;;5087994;28;20056;-72
2023/08/02 02:23:04;;;;;;;8.98;3.45;;;16.00;99.90;;;;;;5089553;28;20052;-69
2023/08/02 02:25:30;;;;;;;15.45;3.78;;;16.00;99.90;;;;;;5089855;28;20044;-71
2023/08/02 02:27:55;;;;;;;9.90;3.90;;;16.00;99.90;;;;;;5087698;28;20048;-72
2023/08/02 02:30:22;;;;;;;8.65;3.88;;;16.00;99.90;;;;;;5071572;28;20128;-72
2023/08/02 02:32:48;;;;;;;11.07;3.85;;;16.00;99.90;;;;;;5083565;28;20060;-72
2023/08/02 02:35:14;;;;;;;11.25;3.70;;;16.00;99.90;;;;;;5089433;28;20567;-72
2023/08/02 02:37:41;;;;;;;12.07;3.55;;;16.00;99.90;;;;;;5088408;28;20044;-72
2023/08/02 02:40:08;;;;;;;16.80;4.00;;;16.00;99.90;;;;;;5088212;28;20358;-72
2023/08/02 02:42:34;;;;;;;14.07;3.47;;;16.00;99.90;;;;;;5089032;28;20048;-72
2023/08/02 02:45:00;;;;;;;12.02;3.75;;;16.00;99.90;;;;;;5088217;28;20067;-72
2023/08/02 02:47:26;;;;;;;15.63;4.13;;;16.00;99.90;;;;;;5085723;28;20059;-72
2023/08/02 02:49:52;;;;;;;11.32;3.50;;;15.90;99.90;;;;;;5086276;28;20044;-72
2023/08/02 02:52:18;;;;;;;9.63;3.08;;;15.90;99.90;;;;;;5084442;28;20036;-72
2023/08/02 02:54:43;;;;;;;9.90;3.72;;;15.90;99.90;;;;;;5066273;28;20109;-72
2023/08/02 02:57:09;;;;;;;12.02;3.90;;;16.00;99.90;;;;;;5086707;28;20040;-72
2023/08/02 02:59:35;;;;;;;9.32;3.47;;;15.90;99.90;;;;;;5087024;28;20043;-72
2023/08/02 03:02:02;;;;;;;10.63;3.20;;;15.90;99.90;;;;;;5070683;28;20047;-72
2023/08/02 03:04:27;;;;;;;10.18;3.33;;;15.90;99.90;;;;;;5087048;28;20127;-71
2023/08/02 03:06:53;;;;;;;11.32;3.38;;;15.90;99.90;;;;;;5086035;28;20137;-72
2023/08/02 03:09:19;;;;;;;13.98;3.70;;;15.90;99.90;;;;;;5082005;28;20044;-71
2023/08/02 03:11:46;;;;;;;13.73;3.83;;;15.90;99.90;;;;;;5083467;28;20040;-72
2023/08/02 03:14:12;;;;;;;11.35;3.58;;;15.90;99.90;;;;;;5078999;28;20044;-71
2023/08/02 03:16:37;;;;;;;13.48;3.38;;;15.90;99.90;;;;;;5079185;28;20106;-72
2023/08/02 03:19:04;;;;;;;9.90;3.60;;;15.90;99.90;;;;;;5085110;28;20409;-71
2023/08/02 03:21:30;;;;;;;9.95;3.58;;;15.90;99.90;;;;;;5088106;28;20066;-71
2023/08/02 03:23:56;;;;;;;11.45;3.40;;;15.90;99.90;;;;;;5085238;28;20556;-72
2023/08/02 03:26:22;;;;;;;9.75;3.45;;;15.90;99.90;;;;;;5088167;28;20093;-72
2023/08/02 03:28:47;;;;;;;12.65;3.63;;;15.90;99.90;;;;;;5086847;28;20044;-72
2023/08/02 03:31:13;;;;;;;9.27;3.92;;;15.80;99.90;;;;;;5086436;28;20090;-72
2023/08/02 03:33:39;;;;;;;13.68;3.40;;;15.80;99.90;;;;;;5069584;28;20047;-72
2023/08/02 03:36:05;;;;;;;10.35;3.50;;;15.80;99.90;;;;;;5083705;28;20044;-72
2023/08/02 03:38:31;;;;;;;11.40;3.78;;;15.80;99.90;;;;;;5055789;28;20041;-72
2023/08/02 03:40:57;;;;;;;12.77;3.55;;;15.80;99.90;;;;;;5076006;28;20523;-71
2023/08/02 03:43:23;;;;;;;15.63;4.22;;;15.80;99.90;;;;;;5085861;28;20685;-72
2023/08/02 03:45:49;;;;;;;10.10;4.00;;;15.80;99.90;;;;;;5065470;28;20044;-72
2023/08/02 03:48:18;;;;;;;11.07;3.97;;;15.80;99.90;;;;;;5064822;28;20052;-72
2023/08/02 03:50:44;;;;;;;13.85;4.32;;;15.80;99.90;;;;;;5081538;28;20459;-72
2023/08/02 03:53:10;;;;;;;17.02;4.32;;;15.80;99.90;;;;;;5085208;28;20043;-72
2023/08/02 03:55:35;;;;;;;14.88;4.57;;;15.70;99.90;;;;;;5082157;28;20148;-72
2023/08/02 03:58:01;;;;;;;14.77;4.32;;;15.70;99.90;;;;;;5086622;28;20028;-72
2023/08/02 04:00:27;;;;;;;17.40;4.78;;;15.70;99.90;;;;;;5077671;28;20043;-72
2023/08/02 04:02:55;;;;;;;18.83;4.47;;;15.70;99.90;;;;;;5060791;28;20451;-72
2023/08/02 04:05:21;;;;;;;22.08;4.85;;;15.70;99.90;;;;;;5061133;28;20120;-72
2023/08/02 04:07:46;;;;;;;19.95;4.93;;;15.70;99.90;;;;;;5052578;28;20047;-72
2023/08/02 04:10:12;;;;;;;16.52;4.93;;;15.70;99.90;;;;;;5076353;28;20102;-72
2023/08/02 04:12:38;;;;;;;15.00;4.85;;;15.70;99.90;;;;;;5077194;28;20408;-72
2023/08/02 04:15:04;;;;;;;16.17;5.10;;;15.70;99.90;;;;;;5063401;28;20126;-72
2023/08/02 04:17:30;;;;;;;17.02;5.35;;;15.70;99.90;;;;;;5073950;28;20567;-72
2023/08/02 04:19:55;;;;;;;20.88;5.50;;;15.60;99.90;;;;;;5079585;28;20052;-73
2023/08/02 04:22:21;;;;;;;23.08;5.63;;;15.60;99.90;;;;;;5078756;28;20651;-72
2023/08/02 04:24:47;;;;;;;21.42;6.05;;;15.60;99.90;;;;;;5078452;28;20412;-73
2023/08/02 04:27:13;;;;;;;20.88;6.20;;;15.60;99.90;;;;;;5066330;28;20055;-73
2023/08/02 04:29:39;;;;;;;21.02;5.30;;;15.60;99.90;;;;;;5085047;28;20043;-73
2023/08/02 04:32:05;;;;;;;19.40;5.75;;;15.60;99.90;;;;;;5083627;28;20484;-73
2023/08/02 04:34:30;;;;;;;19.15;6.70;;;15.60;99.90;;;;;;5084827;28;20083;-72
2023/08/02 04:36:56;;;;;;;18.20;5.47;;;15.60;99.90;;;;;;5080695;28;20443;-72
2023/08/02 04:39:22;;;;;;;18.88;6.22;;;15.60;99.90;;;;;;5066734;28;20314;-72
2023/08/02 04:41:55;;;;;;;20.42;6.25;;;15.60;99.90;;;;;;5082161;28;20032;-72
2023/08/02 04:44:21;;;;;;;17.23;5.60;;;15.50;99.90;;;;;;5083805;28;20040;-72
2023/08/02 04:46:47;;;;;;;14.35;5.80;;;15.50;99.90;;;;;;5083424;28;20563;-72
2023/08/02 04:49:12;;;;;;;23.52;6.72;;;15.50;99.90;;;;;;5084212;28;20036;-70
2023/08/02 04:51:38;;;;;;;18.33;6.55;;;15.50;99.90;;;;;;5075784;28;20586;-70
2023/08/02 04:54:05;;;;;;;16.95;5.65;;;15.50;99.90;;;;;;5084684;28;20488;-70
2023/08/02 04:56:31;;;;;;;18.45;6.35;;;15.50;99.90;;;;;;5085652;28;20052;-72
2023/08/02 04:58:58;;;;;;;24.48;6.20;;;15.50;99.90;;;;;;5066933;28;20122;-72
2023/08/02 05:01:23;;;;;;;18.42;6.07;;;15.50;99.90;;;;;;5084365;28;20090;-72
2023/08/02 05:03:49;;;;;;;16.17;5.68;;;15.50;99.90;;;;;;5084029;28;20036;-72
2023/08/02 05:06:15;;;;;;;28.63;7.05;;;15.50;99.90;;;;;;5083973;28;20139;-72
2023/08/02 05:08:41;;;;;;;20.05;6.35;;;15.50;99.90;;;;;;5085508;28;20135;-73
2023/08/02 05:11:07;;;;;;;18.98;6.75;;;15.50;99.90;;;;;;5084015;28;20631;-72
2023/08/02 05:13:34;;;;;;;18.35;6.28;;;15.50;99.90;;;;;;5086009;28;20040;-73
2023/08/02 05:16:00;;;;;;;17.20;6.15;;;15.40;99.90;;;;;;5083570;28;20059;-73
2023/08/02 05:18:26;;;;;;;16.38;5.88;;;15.40;99.90;;;;;;5085256;28;20044;-73
2023/08/02 05:20:53;;;;;;;18.40;6.03;;;15.40;99.90;;;;;;5083121;28;20081;-72
2023/08/02 05:23:19;;;;;;;18.27;6.15;;;15.40;99.90;;;;;;5084891;28;20713;-72
2023/08/02 05:25:44;;;;;;;15.07;6.45;;;15.40;99.90;;;;;;5064856;28;20050;-73
2023/08/02 05:28:10;;;;;;;15.38;6.03;;;15.40;99.90;;;;;;5084905;28;20062;-72
2023/08/02 05:30:37;;;;;;;15.55;6.25;;;15.40;99.90;;;;;;5089115;28;20047;-72
2023/08/02 05:33:03;;;;;;;16.20;6.13;;;15.40;99.90;;;;;;5072134;28;20043;-73
2023/08/02 05:35:29;;;;;;;19.70;6.45;;;15.40;99.90;;;;;;5088857;28;20040;-73
2023/08/02 05:37:56;;;;;;;16.65;6.40;;;15.40;99.90;;;;;;5072002;28;20605;-72
2023/08/02 05:40:22;;;;;;;14.82;6.22;;;15.40;99.90;;;;;;5089027;28;20051;-73
2023/08/02 05:42:48;;;;;;;17.63;6.63;;;15.50;99.90;;;;;;5090156;28;20036;-72
2023/08/02 05:45:15;;;;;;;12.48;5.80;;;15.50;99.90;;;;;;5089904;28;20066;-73
2023/08/02 05:47:40;;;;;;;18.35;6.53;;;15.50;99.90;;;;;;5089165;28;20093;-73
2023/08/02 05:50:07;;;;;;;15.18;6.20;;;15.50;99.90;;;;;;5088506;28;20044;-73
2023/08/02 05:52:33;;;;;;;12.73;6.65;;;15.50;99.90;;;;;;5090386;28;20073;-72
2023/08/02 05:54:59;;;;;;;16.98;7.25;;;15.50;99.90;;;;;;5089889;28;20043;-72
2023/08/02 05:57:27;;;;;;;16.85;6.15;;;15.50;99.90;;;;;;5089960;28;20507;-72
2023/08/02 05:59:53;;;;;;;17.63;6.63;;;15.50;99.90;;;;;;5090019;28;20040;-72
2023/08/02 06:02:19;;;;;;;15.27;6.20;;;15.50;99.90;;;;;;5088563;28;20070;-73
2023/08/02 06:04:45;;;;;;;19.83;6.82;;;15.50;99.90;;;;;;5071569;28;20047;-72
2023/08/02 06:07:11;;;;;;;15.40;6.40;;;15.60;99.90;;;;;;5088555;28;20086;-73
2023/08/02 06:09:38;;;;;;;13.10;6.43;;;15.60;99.90;;;;;;5089686;28;20071;-72
2023/08/02 06:12:04;;;;;;;18.08;6.70;;;15.60;99.90;;;;;;5071489;28;20110;-73
2023/08/02 06:14:29;;;;;;;19.40;7.55;;;15.60;99.90;;;;;;5087237;28;20499;-72
2023/08/02 06:16:55;;;;;;;14.23;6.78;;;15.60;99.90;;;;;;5089984;28;20085;-73
2023/08/02 06:19:21;;;;;;;20.23;7.35;;;15.60;99.90;;;;;;5088124;28;20047;-73
2023/08/02 06:21:47;;;;;;;21.50;8.43;;;15.70;99.90;;;;;;5088530;28;20040;-73
2023/08/02 06:24:13;;;;;;;20.38;7.22;;;15.60;99.90;;;;;;5085930;28;20055;-72
2023/08/02 06:26:38;;;;;;;17.90;7.30;;;15.70;99.90;;;;;;5087865;28;20410;-72
2023/08/02 06:29:06;;;;;;;19.42;7.10;;;15.70;99.90;;;;;;5089108;28;20063;-73
2023/08/02 06:31:32;;;;;;;20.48;8.10;;;15.70;99.90;;;;;;5087764;28;20059;-73
2023/08/02 06:33:58;;;;;;;14.25;7.10;;;15.70;99.90;;;;;;5070665;28;20054;-73
2023/08/02 06:36:24;;;;;;;17.48;7.47;;;15.70;99.90;;;;;;5088237;28;20432;-73
2023/08/02 06:38:50;;;;;;;17.85;7.05;;;15.80;99.90;;;;;;5071167;28;20479;-73
2023/08/02 06:41:16;;;;;;;17.88;7.95;;;15.80;99.90;;;;;;5086176;28;20046;-73
2023/08/02 06:43:41;;;;;;;20.77;7.90;;;15.80;99.90;;;;;;5089857;28;20043;-73
2023/08/02 06:46:07;;;;;;;20.70;7.30;;;15.80;99.90;;;;;;5083903;28;20055;-73
2023/08/02 06:48:33;;;;;;;21.10;8.43;;;15.80;99.90;;;;;;5071234;28;20048;-73
2023/08/02 06:51:00;;;;;;;15.48;7.07;;;15.80;99.90;;;;;;5085822;28;20185;-72
2023/08/02 06:53:25;;;;;;;14.63;7.22;;;15.90;99.90;;;;;;5087300;28;20507;-72
2023/08/02 06:55:51;;;;;;;19.20;7.30;;;15.90;99.90;;;;;;5070427;28;20044;-73
2023/08/02 06:58:17;;;;;;;19.75;7.68;;;15.90;99.90;;;;;;5087276;28;20032;-73
2023/08/02 07:00:43;;;;;;;15.70;6.57;;;15.90;99.90;;;;;;5087946;28;20516;-73
2023/08/02 07:03:08;;;;;;;19.75;7.63;;;16.00;99.90;;;;;;5086660;28;20174;-74
2023/08/02 07:05:35;;;;;;;16.25;7.43;;;16.00;99.90;;;;;;5070632;28;20105;-73
2023/08/02 07:08:02;;;;;;;16.83;7.22;;;16.10;99.90;;;;;;5070172;28;20039;-72
2023/08/02 07:10:32;;;;;;;17.75;7.18;;;16.10;99.90;;;;;;5082859;28;20052;-73
2023/08/02 07:12:58;;;;;;;15.98;7.15;;;16.10;99.90;;;;;;5066378;28;20043;-73
2023/08/02 07:15:26;;;;;;;17.70;7.07;;;16.10;99.90;;;;;;5086804;28;20044;-73
2023/08/02 07:17:52;;;;;;;12.95;6.40;;;16.10;99.90;;;;;;5085536;28;20048;-73
2023/08/02 07:20:18;;;;;;;16.30;6.43;;;16.10;99.90;;;;;;5086480;28;20721;-73
2023/08/02 07:22:45;;;;;;;15.00;6.50;;;16.10;99.90;;;;;;5070200;28;20074;-73
2023/08/02 07:25:11;;;;;;;9.95;5.25;;;16.20;99.90;;;;;;5086460;28;20048;-73
2023/08/02 07:27:37;;;;;;;14.27;5.40;;;16.10;99.90;;;;;;5086083;28;20040;-73
2023/08/02 07:30:04;;;;;;;17.52;5.93;;;16.20;99.90;;;;;;5070253;28;20048;-73
2023/08/02 07:32:33;;;;;;;20.73;6.55;;;16.20;99.90;;;;;;5087941;28;20548;-73
2023/08/02 07:34:58;;;;;;;12.63;5.05;;;16.10;99.90;;;;;;5086910;28;20500;-73
2023/08/02 07:37:24;;;;;;;15.50;4.85;;;16.20;99.90;;;;;;5088189;28;20084;-73
2023/08/02 07:39:50;;;;;;;14.75;6.18;;;16.20;99.90;;;;;;5086382;28;20043;-73
2023/08/02 07:42:16;;;;;;;15.35;5.18;;;16.20;99.90;;;;;;5066867;28;20044;-73
2023/08/02 07:44:42;;;;;;;12.13;5.10;;;16.10;99.90;;;;;;5086253;28;20047;-73
2023/08/02 07:47:08;;;;;;;12.18;5.05;;;16.20;99.90;;;;;;5068100;28;20131;-73
2023/08/02 07:49:34;;;;;;;12.52;5.22;;;16.20;99.90;;;;;;5086269;28;20173;-72
2023/08/02 07:52:03;;;;;;;14.10;5.53;;;16.20;99.90;;;;;;5086261;28;20494;-72
2023/08/02 07:54:28;;;;;;;14.10;4.70;;;16.20;99.90;;;;;;5080090;28;20059;-72
2023/08/02 07:56:54;;;;;;;14.07;4.95;;;16.20;99.90;;;;;;5069952;28;20052;-72
2023/08/02 07:59:20;;;;;;;11.75;4.60;;;16.20;99.90;;;;;;5086382;28;20047;-72
2023/08/02 08:01:46;;;;;;;13.55;4.43;;;16.20;99.90;;;;;;5069670;28;20520;-74
2023/08/02 08:04:12;;;;;;;12.88;4.38;;;16.20;99.90;;;;;;5087354;28;20044;-73
2023/08/02 08:06:38;;;;;;;12.65;4.70;;;16.10;99.90;;;;;;5086064;28;20063;-72
2023/08/02 08:09:04;;;;;;;13.32;4.45;;;16.10;99.90;;;;;;5085955;28;20040;-72
2023/08/02 08:11:30;;;;;;;11.82;4.70;;;16.10;99.90;;;;;;5068227;28;20051;-73
2023/08/02 08:13:56;;;;;;;13.88;5.03;;;16.10;99.90;;;;;;5084562;28;20051;-73
2023/08/02 08:16:22;;;;;;;12.48;4.22;;;16.10;99.90;;;;;;5086076;28;20040;-73
2023/08/02 08:18:47;;;;;;;12.10;4.47;;;16.10;99.90;;;;;;5082561;28;20040;-73
2023/08/02 08:21:13;;;;;;;9.65;4.00;;;16.10;99.90;;;;;;5086888;28;20508;-73
2023/08/02 08:23:39;;;;;;;13.18;4.45;;;16.10;99.90;;;;;;5068802;28;20051;-73
2023/08/02 08:26:09;;;;;;;19.80;4.80;;;16.00;99.90;;;;;;5083911;28;20044;-72
2023/08/02 08:28:35;;;;;;;11.35;3.97;;;16.00;99.90;;;;;;5086071;28;20059;-72
2023/08/02 08:31:02;;;;;;;12.85;3.78;;;16.00;99.90;;;;;;5087389;28;20417;-73
2023/08/02 08:33:29;;;;;;;13.38;4.28;;;16.00;99.90;;;;;;5085171;28;20812;-73
2023/08/02 08:35:55;;;;;;;11.10;4.00;;;16.00;99.90;;;;;;5085523;28;20079;-73
2023/08/02 08:38:21;;;;;;;10.57;3.90;;;15.90;99.90;;;;;;5083398;28;20039;-73
2023/08/02 08:40:54;;;;;;;10.52;4.00;;;15.90;99.90;;;;;;5084045;28;20542;-72
2023/08/02 08:43:24;;;;;;;14.88;4.93;;;15.90;99.90;;;;;;5085556;28;20044;-72
2023/08/02 08:45:51;;;;;;;12.73;4.40;;;15.90;99.90;;;;;;5086236;28;20099;-71
2023/08/02 08:48:18;;;;;;;9.25;4.28;;;15.90;99.90;;;;;;5085553;28;20036;-71
2023/08/02 08:50:46;;;;;;;10.15;4.32;;;15.80;99.90;;;;;;5086953;28;20044;-71
2023/08/02 08:53:19;;;;;;;16.98;5.28;;;15.80;99.90;;;;;;5086588;28;20036;-72
2023/08/02 08:55:48;;;;;;;12.52;4.43;;;15.80;99.90;;;;;;5085271;28;20039;-72
2023/08/02 08:58:14;;;;;;;16.05;4.30;;;15.80;99.90;;;;;;5083686;28;20043;-72
2023/08/02 09:00:42;;;;;;;15.05;4.30;;;15.80;99.90;;;;;;5085427;28;20047;-72
2023/08/02 09:03:09;;;;;;;15.85;4.85;;;15.70;99.90;;;;;;5077219;28;20036;-72
2023/08/02 09:05:35;;;;;;;13.40;4.32;;;15.70;99.90;;;;;;5089678;28;20047;-71
2023/08/02 09:08:01;;;;;;;11.88;4.43;;;15.70;99.90;;;;;;5072696;28;20047;-71
2023/08/02 09:10:27;;;;;;;13.43;4.65;;;15.70;99.90;;;;;;5091600;28;20056;-71
2023/08/02 09:12:53;;;;;;;10.50;3.85;;;15.70;99.90;;;;;;5085371;28;20211;-70
2023/08/02 09:15:18;;;;;;;10.35;4.15;;;15.70;99.90;;;;;;5089001;28;20844;-70
2023/08/02 09:17:48;;;;;;;13.50;4.25;;;15.70;99.90;;;;;;5068849;28;20067;-70
2023/08/02 09:20:16;;;;;;;12.23;4.40;;;15.70;99.90;;;;;;5073323;28;20052;-71
2023/08/02 09:22:42;;;;;;;11.40;4.18;;;15.70;99.90;;;;;;5089251;28;20072;-71
2023/08/02 09:25:18;;;;;;;12.23;4.57;;;15.70;99.90;;;;;;5067513;28;20096;-72
2023/08/02 09:27:45;;;;;;;8.38;4.47;;;15.70;99.90;;;;;;5085392;28;20036;-70
2023/08/02 09:30:28;;;;;;;8.00;4.05;;;15.70;99.90;;;;;;5073615;28;20095;-71
2023/08/02 09:33:08;;;;;;;9.40;4.32;;;15.70;99.90;;;;;;5083185;28;20101;-71
2023/08/02 09:35:47;;;;;;;13.07;4.60;;;15.70;99.90;;;;;;5090930;28;20058;-71
2023/08/02 09:38:13;;;;;;;11.57;4.70;;;15.70;99.90;;;;;;5087889;28;20043;-68
2023/08/02 09:40:41;;;;;;;7.97;4.07;;;15.80;99.90;;;;;;5071944;28;20051;-70
2023/08/02 09:43:10;;;;;;;12.13;4.50;;;15.70;99.90;;;;;;5086073;28;20069;-70
2023/08/02 09:45:36;;;;;;;10.45;4.20;;;15.70;99.90;;;;;;5080835;28;20044;-70
2023/08/02 09:48:03;;;;;;;12.20;5.18;;;15.80;99.90;;;;;;5066318;28;20048;-71
2023/08/02 09:50:30;;;;;;;10.25;4.93;;;15.80;99.90;;;;;;5085485;28;20143;-71
2023/08/02 09:52:56;;;;;;;11.70;4.88;;;15.80;99.90;;;;;;5083072;28;20062;-71
2023/08/02 09:55:22;;;;;;;10.07;4.85;;;15.80;99.90;;;;;;5085962;28;20052;-70
2023/08/02 09:57:49;;;;;;;9.75;4.65;;;15.90;99.90;;;;;;5072869;28;20146;-70
2023/08/02 10:00:17;;;;;;;11.88;4.53;;;15.80;99.90;;;;;;5086327;28;20075;-70
2023/08/02 10:02:43;;;;;;;8.00;4.43;;;15.90;99.90;;;;;;5085873;28;20439;-71
2023/08/02 10:05:12;;;;;;;10.30;4.38;;;15.90;99.90;;;;;;5087702;28;20066;-71
2023/08/02 10:07:46;;;;;;;9.55;4.53;;;15.90;99.90;;;;;;5060899;28;20160;-71
2023/08/02 10:10:22;;;;;;;9.73;4.82;;;15.90;99.90;;;;;;5081590;28;20048;-70
2023/08/02 10:13:09;;;;;;;8.60;4.22;;;15.90;99.90;;;;;;5088290;28;20048;-70
2023/08/02 10:15:39;;;;;;;12.48;4.43;;;15.80;99.90;;;;;;5078302;28;20068;-72
2023/08/02 10:18:05;;;;;;;8.52;4.30;;;15.90;99.90;;;;;;5086034;28;20600;-72
2023/08/02 10:20:31;;;;;;;8.15;4.10;;;15.90;99.90;;;;;;5071030;28;20090;-73
2023/08/02 10:22:58;;;;;;;9.85;4.40;;;15.90;99.90;;;;;;5080577;28;20126;-71
2023/08/02 10:25:24;;;;;;;11.57;3.95;;;15.90;99.90;;;;;;5081695;28;20044;-71
2023/08/02 10:27:52;;;;;;;9.27;4.47;;;15.90;99.90;;;;;;5082492;28;20045;-71
2023/08/02 10:30:18;;;;;;;8.85;4.57;;;15.90;99.90;;;;;;5082278;28;20119;-72
2023/08/02 10:33:14;;;;;;;7.30;3.90;;;15.90;99.90;;;;;;5085202;28;20112;-70
2023/08/02 10:36:03;;;;;;;8.20;3.88;;;15.90;99.90;;;;;;5081010;28;20044;-71
2023/08/02 10:38:38;;;;;;;8.18;3.42;;;15.90;99.90;;;;;;5084486;28;20513;-71
2023/08/02 10:41:10;;;;;;;12.45;3.92;;;15.90;99.90;;;;;;5062592;28;20131;-71
2023/08/02 10:43:53;;;;;;;9.65;3.70;;;16.00;99.90;;;;;;5076871;28;20123;-71
2023/08/02 10:46:27;;;;;;;8.65;3.67;;;16.00;99.90;;;;;;5068644;28;20153;-71
2023/08/02 10:49:12;;;;;;;11.52;3.58;;;16.00;99.90;;;;;;5082283;28;20055;-71
2023/08/02 10:51:38;;;;;;;9.40;3.40;;;16.00;99.90;;;;;;5088072;28;20043;-71
2023/08/02 10:54:22;;;;;;;7.05;3.30;;;16.00;99.90;;;;;;5086961;28;20287;-70
2023/08/02 10:56:54;;;;;;;6.85;3.25;;;16.00;99.90;;;;;;5084555;28;20071;-71
2023/08/02 10:59:23;;;;;;;6.82;2.78;;;16.10;99.90;;;;;;5078992;28;20509;-71
2023/08/02 11:02:04;;;;;;;5.78;2.60;;;16.10;99.90;;;;;;5066321;28;20517;-71
2023/08/02 11:04:30;;;;;;;5.10;2.42;;;16.10;99.90;;;;;;5083730;28;20040;-70
2023/08/02 11:07:09;;;;;;;4.95;2.40;;;16.10;99.90;;;;;;5077723;28;20060;-70
2023/08/02 11:09:35;;;;;;;4.45;2.17;;;16.20;99.90;;;;;;5085958;28;20562;-72
2023/08/02 11:12:15;;;;;;;4.53;2.17;;;16.20;99.90;;;;;;5075307;28;20043;-72
2023/08/02 11:14:42;;;;;;;5.45;2.00;;;16.30;99.90;;;;;;5063940;28;20063;-70
2023/08/02 11:17:08;;;;;;;3.97;1.85;;;16.30;99.90;;;;;;5086659;28;20544;-72
2023/08/02 11:19:35;;;;;;;3.65;1.70;;;16.30;99.90;;;;;;5080407;28;20051;-70
2023/08/02 11:22:02;;;;;;;3.95;1.70;;;16.30;99.90;;;;;;5082920;28;20067;-70
2023/08/02 11:24:28;;;;;;;6.93;1.80;;;16.30;99.90;;;;;;5062772;28;20051;-71
2023/08/02 11:26:56;;;;;;;3.15;1.35;;;16.30;99.90;;;;;;5074442;28;20390;-70
2023/08/02 11:29:22;;;;;;;4.68;1.70;;;16.30;99.90;;;;;;5080901;28;20052;-71
2023/08/02 11:31:48;;;;;;;5.20;1.75;;;16.30;99.90;;;;;;5078073;28;20059;-71
2023/08/02 11:34:21;;;;;;;3.38;1.60;;;16.30;99.90;;;;;;5082765;28;20865;-72
2023/08/02 11:36:50;;;;;;;2.85;1.30;;;16.30;99.90;;;;;;5086385;28;20047;-72
2023/08/02 11:39:17;;;;;;;2.35;1.20;;;16.40;99.90;;;;;;5083943;28;20389;-72
2023/08/02 11:41:43;;;;;;;2.95;1.40;;;16.40;99.90;;;;;;5062582;28;20146;-73
2023/08/02 11:44:18;;;;;;;3.75;1.60;;;16.40;99.90;;;;;;5085699;28;20471;-73
2023/08/02 11:46:56;;;;;;;2.53;1.30;;;16.50;99.90;;;;;;5068828;28;20134;-73
2023/08/02 11:49:22;;;;;;;2.65;1.23;;;16.50;99.90;;;;;;5065188;28;20457;-73
2023/08/02 11:51:48;;;;;;;2.85;1.30;;;16.60;99.90;;;;;;5086533;28;20052;-73
2023/08/02 11:54:15;;;;;;;2.58;1.27;;;16.60;99.90;;;;;;5067679;28;20522;-73
2023/08/02 11:56:41;;;;;;;3.60;1.38;;;16.60;99.90;;;;;;5083685;28;20050;-73
2023/08/02 11:59:11;;;;;;;3.47;1.45;;;16.70;99.90;;;;;;5083126;28;20047;-73
2023/08/02 12:01:41;;;;;;;4.40;1.73;;;16.80;99.90;;;;;;5080826;28;20074;-72
2023/08/02 12:04:08;;;;;;;3.00;1.30;;;16.90;99.90;;;;;;5085627;28;20047;-72
2023/08/02 12:06:52;;;;;;;2.30;1.42;;;17.00;99.90;;;;;;5085838;28;20410;-72
2023/08/02 12:09:19;;;;;;;2.55;1.33;;;17.00;99.90;;;;;;5085217;28;20039;-73
2023/08/02 12:11:51;;;;;;;2.08;1.10;;;17.10;99.90;;;;;;5085773;28;20458;-72
2023/08/02 12:14:35;;;;;;;2.03;1.20;;;17.20;99.90;;;;;;5086704;28;20047;-72
2023/08/02 12:17:01;;;;;;;2.53;1.20;;;17.20;99.90;;;;;;5079675;28;20074;-72
2023/08/02 12:19:38;;;;;;;2.47;1.50;;;17.20;99.90;;;;;;5059645;28;20045;-73
2023/08/02 12:22:04;;;;;;;3.00;1.30;;;17.30;99.90;;;;;;5079447;28;20143;-72
2023/08/02 12:24:30;;;;;;;5.68;2.35;;;17.30;99.90;;;;;;5084700;28;20131;-72
2023/08/02 12:26:56;;;;;;;1.50;1.10;;;17.30;99.90;;;;;;5085140;28;20048;-72
2023/08/02 12:29:23;;;;;;;3.03;1.55;;;17.40;99.90;;;;;;5068234;28;20051;-72
2023/08/02 12:31:49;;;;;;;2.15;1.27;;;17.40;99.90;;;;;;5082922;28;20043;-73
2023/08/02 12:34:15;;;;;;;4.28;1.60;;;17.40;99.90;;;;;;5086492;28;20568;-72
2023/08/02 12:36:41;;;;;;;4.00;1.38;;;17.40;99.90;;;;;;5085240;28;20051;-72
2023/08/02 12:39:06;;;;;;;4.40;2.50;;;17.40;99.90;;;;;;5083626;28;20079;-74
2023/08/02 12:41:32;;;;;;;5.35;2.10;;;17.50;99.90;;;;;;5082356;28;20390;-72